createdAt,value
2023-03-05T00:00:33.222Z,62.58
2023-03-05T00:03:01.600Z,62.71
2023-03-05T00:05:29.976Z,62.77
2023-03-05T00:07:58.462Z,62.86
2023-03-05T00:10:27.964Z,62.74
2023-03-05T00:12:57.160Z,62.83
2023-03-05T00:15:26.049Z,62.65
2023-03-05T00:17:57.158Z,62.49
2023-03-05T00:20:26.049Z,62.73
2023-03-05T00:22:54.410Z,62.71
2023-03-05T00:25:22.583Z,62.75
2023-03-05T00:27:51.328Z,63.00
2023-03-05T00:30:22.476Z,63.19
2023-03-05T00:32:51.057Z,63.03
2023-03-05T00:35:19.405Z,63.16
2023-03-05T00:37:49.615Z,63.28
2023-03-05T00:40:19.170Z,63.31
2023-03-05T00:42:47.459Z,63.78
2023-03-05T00:45:16.044Z,64.21
2023-03-05T00:47:44.273Z,64.08
2023-03-05T00:50:12.686Z,63.67
2023-03-05T00:52:43.440Z,64.04
2023-03-05T00:55:11.821Z,64.08
2023-03-05T00:57:40.644Z,63.94
2023-03-05T01:00:10.251Z,64.08
2023-03-05T01:02:39.034Z,64.19
2023-03-05T01:05:08.393Z,64.22
2023-03-05T01:07:37.349Z,64.20
2023-03-05T01:10:06.853Z,64.62
2023-03-05T01:12:40.462Z,64.90
2023-03-05T01:15:09.057Z,64.56
2023-03-05T01:17:37.628Z,64.50
2023-03-05T01:20:08.291Z,64.57
2023-03-05T01:22:40.431Z,64.51
2023-03-05T01:25:09.877Z,64.54
2023-03-05T01:27:39.794Z,64.93
2023-03-05T01:30:13.659Z,64.74
2023-03-05T01:32:43.022Z,64.94
2023-03-05T01:35:15.659Z,65.49
2023-03-05T01:37:46.235Z,65.48
2023-03-05T01:40:16.476Z,65.04
2023-03-05T01:42:49.506Z,65.09
2023-03-05T01:45:18.676Z,65.24
2023-03-05T01:47:46.946Z,65.19
2023-03-05T01:50:17.984Z,65.39
2023-03-05T01:52:49.494Z,65.46
2023-03-05T01:55:21.691Z,65.75
2023-03-05T01:57:58.390Z,66.27
2023-03-05T02:00:31.419Z,66.55
2023-03-05T02:03:08.001Z,66.34
2023-03-05T02:05:38.214Z,66.23
2023-03-05T02:08:11.602Z,66.11
2023-03-05T02:10:44.525Z,65.99
2023-03-05T02:13:15.197Z,66.56
2023-03-05T02:15:43.993Z,66.62
2023-03-05T02:18:16.205Z,67.14
2023-03-05T02:20:56.609Z,67.54
2023-03-05T02:23:27.002Z,67.41
2023-03-05T02:25:59.067Z,67.16
2023-03-05T02:28:48.253Z,67.15
2023-03-05T02:31:18.973Z,67.26
2023-03-05T02:33:48.425Z,67.43
2023-03-05T02:36:16.994Z,67.68
2023-03-05T02:38:46.967Z,67.91
2023-03-05T02:41:15.781Z,68.04
2023-03-05T02:43:44.586Z,67.69
2023-03-05T02:46:15.217Z,67.73
2023-03-05T02:48:45.059Z,67.89
2023-03-05T02:51:14.867Z,67.88
2023-03-05T02:53:44.907Z,68.10
2023-03-05T02:56:13.330Z,68.44
2023-03-05T02:58:43.285Z,68.34
2023-03-05T03:01:12.558Z,68.10
2023-03-05T03:03:41.178Z,67.91
2023-03-05T03:06:11.288Z,67.99
2023-03-05T03:08:39.752Z,68.05
2023-03-05T03:11:10.954Z,68.32
2023-03-05T03:13:41.224Z,68.63
2023-03-05T03:16:13.800Z,68.71
2023-03-05T03:20:50.879Z,68.56
2023-03-05T03:23:26.640Z,68.56
2023-03-05T03:25:55.226Z,68.83
2023-03-05T03:28:23.806Z,68.86
2023-03-05T03:30:52.728Z,69.06
2023-03-05T03:33:21.186Z,68.81
2023-03-05T03:35:50.008Z,68.79
2023-03-05T03:38:18.638Z,68.84
2023-03-05T03:40:46.882Z,69.08
2023-03-05T03:43:15.561Z,68.92
2023-03-05T03:45:44.137Z,69.40
2023-03-05T03:48:13.238Z,69.31
2023-03-05T03:50:44.652Z,69.18
2023-03-05T03:53:33.573Z,68.95
2023-03-05T03:56:03.844Z,68.76
2023-03-05T03:58:34.063Z,68.65
2023-03-05T04:01:02.481Z,68.84
2023-03-05T04:03:30.865Z,68.92
2023-03-05T04:06:00.164Z,68.86
2023-03-05T04:08:32.225Z,68.66
2023-03-05T04:11:02.287Z,68.44
2023-03-05T04:13:30.666Z,68.48
2023-03-05T04:16:00.304Z,68.44
2023-03-05T04:18:32.433Z,68.81
2023-03-05T04:21:01.291Z,68.99
2023-03-05T04:23:30.260Z,68.60
2023-03-05T04:25:58.504Z,68.26
2023-03-05T04:28:27.388Z,68.32
2023-03-05T04:30:55.764Z,67.99
2023-03-05T04:33:24.147Z,68.02
2023-03-05T04:35:52.634Z,68.67
2023-03-05T04:38:22.703Z,68.40
2023-03-05T04:40:51.236Z,68.39
2023-03-05T04:43:20.386Z,68.26
2023-03-05T04:45:49.279Z,67.99
2023-03-05T04:48:19.098Z,67.97
2023-03-05T04:50:47.803Z,67.95
2023-03-05T04:53:16.469Z,67.86
2023-03-05T04:55:44.818Z,68.30
2023-03-05T04:58:14.017Z,68.39
2023-03-05T05:00:42.329Z,68.05
2023-03-05T05:03:11.167Z,67.64
2023-03-05T05:05:40.625Z,67.62
2023-03-05T05:08:11.060Z,67.72
2023-03-05T05:10:40.376Z,67.21
2023-03-05T05:13:09.008Z,67.40
2023-03-05T05:15:41.327Z,67.87
2023-03-05T05:18:10.110Z,68.09
2023-03-05T05:20:40.717Z,67.78
2023-03-05T05:23:09.404Z,67.33
2023-03-05T05:25:37.680Z,67.18
2023-03-05T05:28:06.677Z,66.79
2023-03-05T05:30:35.384Z,67.24
2023-03-05T05:33:03.959Z,67.24
2023-03-05T05:35:32.355Z,67.55
2023-03-05T05:38:00.720Z,67.92
2023-03-05T05:40:30.638Z,67.73
2023-03-05T05:42:59.535Z,67.74
2023-03-05T05:45:27.830Z,67.66
2023-03-05T05:47:56.499Z,67.85
2023-03-05T05:50:28.049Z,67.77
2023-03-05T05:52:56.539Z,67.64
2023-03-05T05:55:25.018Z,67.89
2023-03-05T05:58:13.258Z,67.90
2023-03-05T06:00:44.613Z,67.65
2023-03-05T06:03:14.262Z,67.51
2023-03-05T06:05:43.369Z,67.58
2023-03-05T06:08:11.842Z,67.36
2023-03-05T06:10:40.522Z,67.07
2023-03-05T06:13:12.892Z,67.35
2023-03-05T06:15:42.503Z,67.11
2023-03-05T06:18:10.835Z,67.00
2023-03-05T06:20:39.669Z,66.95
2023-03-05T06:23:08.627Z,66.26
2023-03-05T06:25:37.968Z,66.00
2023-03-05T06:28:06.547Z,65.56
2023-03-05T06:30:35.158Z,65.56
2023-03-05T06:33:08.122Z,65.83
2023-03-05T06:35:43.340Z,65.53
2023-03-05T06:38:11.770Z,65.42
2023-03-05T06:40:41.686Z,64.92
2023-03-05T06:43:17.643Z,64.50
2023-03-05T06:45:46.860Z,64.63
2023-03-05T06:48:21.775Z,64.91
2023-03-05T06:50:50.360Z,64.51
2023-03-05T06:53:20.008Z,64.34
2023-03-05T06:55:48.856Z,64.28
2023-03-05T06:58:18.056Z,63.90
2023-03-05T07:00:56.918Z,63.44
2023-03-05T07:03:26.204Z,63.61
2023-03-05T07:05:54.974Z,63.73
2023-03-05T07:08:23.416Z,63.56
2023-03-05T07:10:51.898Z,62.52
2023-03-05T07:13:21.075Z,62.27
2023-03-05T07:15:52.552Z,61.96
2023-03-05T07:18:23.870Z,62.19
2023-03-05T07:20:52.155Z,61.90
2023-03-05T07:23:24.923Z,62.19
2023-03-05T07:25:55.287Z,62.31
2023-03-05T07:28:24.057Z,61.87
2023-03-05T07:30:59.088Z,61.94
2023-03-05T07:33:27.561Z,61.56
2023-03-05T07:36:05.573Z,61.03
2023-03-05T07:38:34.117Z,61.45
2023-03-05T07:41:04.646Z,61.12
2023-03-05T07:43:33.710Z,60.88
2023-03-05T07:46:10.585Z,60.56
2023-03-05T07:48:40.894Z,60.19
2023-03-05T07:51:20.241Z,59.82
2023-03-05T07:54:10.709Z,59.97
2023-03-05T07:56:49.578Z,60.14
2023-03-05T07:59:22.558Z,59.88
2023-03-05T08:01:51.719Z,59.07
2023-03-05T08:04:32.437Z,59.03
2023-03-05T08:07:07.334Z,58.55
2023-03-05T08:09:35.990Z,58.16
2023-03-05T08:12:11.561Z,56.89
2023-03-05T08:14:51.636Z,55.53
2023-03-05T08:17:19.916Z,55.66
2023-03-05T08:19:51.309Z,55.73
2023-03-05T08:22:20.730Z,56.28
2023-03-05T08:24:52.476Z,56.72
2023-03-05T08:27:32.496Z,57.31
2023-03-05T08:30:08.356Z,57.85
2023-03-05T08:32:47.331Z,57.72
2023-03-05T08:35:16.047Z,57.75
2023-03-05T08:37:47.117Z,56.74
2023-03-05T08:40:18.309Z,56.41
2023-03-05T08:42:56.148Z,56.48
2023-03-05T08:45:25.234Z,55.96
2023-03-05T08:47:55.524Z,54.25
2023-03-05T08:50:26.697Z,54.71
2023-03-05T08:52:57.233Z,54.99
2023-03-05T08:55:25.910Z,53.84
2023-03-05T08:58:02.233Z,53.94
2023-03-05T09:00:31.258Z,53.79
2023-03-05T09:03:00.280Z,53.69
2023-03-05T09:05:31.138Z,53.38
2023-03-05T09:08:05.071Z,52.74
2023-03-05T09:10:33.424Z,52.52
2023-03-05T09:13:03.709Z,52.95
2023-03-05T09:15:34.364Z,52.37
2023-03-05T09:18:24.656Z,51.98
2023-03-05T09:20:53.548Z,52.69
2023-03-05T09:23:22.660Z,53.09
2023-03-05T09:25:50.924Z,52.23
2023-03-05T09:28:19.938Z,52.04
2023-03-05T09:30:51.572Z,51.49
2023-03-05T09:33:20.065Z,52.07
2023-03-05T09:35:49.282Z,52.11
2023-03-05T09:38:19.579Z,52.04
2023-03-05T09:40:54.108Z,52.34
2023-03-05T09:43:31.901Z,51.79
2023-03-05T09:46:14.043Z,50.77
2023-03-05T09:48:49.344Z,49.81
2023-03-05T09:51:25.932Z,50.37
2023-03-05T09:54:07.709Z,49.69
2023-03-05T09:56:37.392Z,47.76
2023-03-05T09:59:29.657Z,48.58
2023-03-05T10:02:06.669Z,48.20
2023-03-05T10:04:41.676Z,48.53
2023-03-05T10:07:32.175Z,48.64
2023-03-05T10:10:11.126Z,48.69
2023-03-05T10:12:46.746Z,48.78
2023-03-05T10:15:36.018Z,49.28
2023-03-05T10:18:04.812Z,49.30
2023-03-05T10:20:57.986Z,49.10
2023-03-05T10:23:55.987Z,48.60
2023-03-05T10:26:52.793Z,46.30
2023-03-05T10:29:58.234Z,46.87
2023-03-05T10:32:29.797Z,46.18
2023-03-05T10:35:19.840Z,45.36
2023-03-05T10:37:54.284Z,44.48
2023-03-05T10:40:47.062Z,44.53
2023-03-05T10:43:24.559Z,42.38
2023-03-05T10:45:54.063Z,42.40
2023-03-05T10:48:55.007Z,42.90
2023-03-05T10:51:31.149Z,43.52
2023-03-05T10:54:04.881Z,43.59
2023-03-05T10:56:34.358Z,44.23
2023-03-05T10:59:03.149Z,44.82
2023-03-05T11:01:37.856Z,45.14
2023-03-05T11:04:07.952Z,44.13
2023-03-05T11:06:37.594Z,42.72
2023-03-05T11:09:29.851Z,40.97
2023-03-05T11:12:14.860Z,41.54
2023-03-05T11:14:55.147Z,42.16
2023-03-05T11:17:30.678Z,42.96
2023-03-05T11:20:19.808Z,43.89
2023-03-05T11:23:12.069Z,43.30
2023-03-05T11:25:54.241Z,42.80
2023-03-05T11:28:56.804Z,43.46
2023-03-05T11:31:28.851Z,43.61
2023-03-05T11:33:57.438Z,44.19
2023-03-05T11:36:30.740Z,44.85
2023-03-05T11:39:00.336Z,43.89
2023-03-05T11:41:34.867Z,43.66
2023-03-05T11:44:04.678Z,44.22
2023-03-05T11:46:42.177Z,44.43
2023-03-05T11:49:13.518Z,44.54
2023-03-05T11:51:58.586Z,44.71
2023-03-05T11:54:37.171Z,45.01
2023-03-05T11:57:05.547Z,45.13
2023-03-05T11:59:41.877Z,45.60
2023-03-05T12:02:26.323Z,46.06
2023-03-05T12:04:56.155Z,46.19
2023-03-05T12:07:38.948Z,46.27
2023-03-05T12:10:14.744Z,46.40
2023-03-05T12:13:00.543Z,46.39
2023-03-05T12:16:16.278Z,46.46
2023-03-05T12:18:51.848Z,47.15
2023-03-05T12:21:27.023Z,47.18
2023-03-05T12:23:59.302Z,47.40
2023-03-05T12:27:05.152Z,48.00
2023-03-05T12:29:44.392Z,48.64
2023-03-05T12:32:43.459Z,48.89
2023-03-05T12:35:29.848Z,48.91
2023-03-05T12:38:26.515Z,49.56
2023-03-05T12:41:25.863Z,49.18
2023-03-05T12:44:08.786Z,49.50
2023-03-05T12:46:44.195Z,49.55
2023-03-05T12:49:27.235Z,49.49
2023-03-05T12:51:56.818Z,49.16
2023-03-05T12:54:29.954Z,48.82
2023-03-05T12:57:04.678Z,49.15
2023-03-05T12:59:59.225Z,48.75
2023-03-05T13:02:34.253Z,49.13
2023-03-05T13:05:28.659Z,48.74
2023-03-05T13:08:31.870Z,48.83
2023-03-05T13:11:06.876Z,48.50
2023-03-05T13:13:39.020Z,48.59
2023-03-05T13:16:23.196Z,47.98
2023-03-05T13:18:51.910Z,47.92
2023-03-05T13:21:29.284Z,47.75
2023-03-05T13:24:11.714Z,47.47
2023-03-05T13:26:43.598Z,47.22
2023-03-05T13:29:16.986Z,46.83
2023-03-05T13:31:47.100Z,46.82
2023-03-05T13:34:48.073Z,46.64
2023-03-05T13:37:21.168Z,46.02
2023-03-05T13:39:51.355Z,46.35
2023-03-05T13:42:22.936Z,46.75
2023-03-05T13:44:59.130Z,47.09
2023-03-05T13:47:34.469Z,47.02
2023-03-05T13:50:06.041Z,47.36
2023-03-05T13:52:36.615Z,47.35
2023-03-05T13:55:12.413Z,47.58
2023-03-05T13:57:43.233Z,47.26
2023-03-05T14:00:36.631Z,47.69
2023-03-05T14:03:26.937Z,47.59
2023-03-05T14:05:56.641Z,47.72
2023-03-05T14:08:28.509Z,47.18
2023-03-05T14:11:17.577Z,47.29
2023-03-05T14:13:46.986Z,47.24
2023-03-05T14:16:26.472Z,47.36
2023-03-05T14:19:01.810Z,47.11
2023-03-05T14:21:48.433Z,46.73
2023-03-05T14:24:23.796Z,47.03
2023-03-05T14:26:53.586Z,46.77
2023-03-05T14:29:24.513Z,47.15
2023-03-05T14:32:09.524Z,47.31
2023-03-05T14:34:41.277Z,47.16
2023-03-05T14:37:36.144Z,47.40
2023-03-05T14:44:02.338Z,47.66
2023-03-05T14:46:35.120Z,47.83
2023-03-05T14:49:03.263Z,48.11
2023-03-05T14:51:32.971Z,48.26
2023-03-05T14:54:01.080Z,48.66
2023-03-05T14:56:29.459Z,48.72
2023-03-05T14:58:59.069Z,49.00
2023-03-05T15:01:27.351Z,49.22
2023-03-05T15:03:57.162Z,49.35
2023-03-05T15:06:31.088Z,49.50
2023-03-05T15:09:02.721Z,49.84
2023-03-05T15:11:36.841Z,50.14
2023-03-05T15:14:06.232Z,50.30
2023-03-05T15:16:34.409Z,50.50
2023-03-05T15:19:06.473Z,50.83
2023-03-05T15:21:37.271Z,50.95
2023-03-05T15:24:06.728Z,51.07
2023-03-05T15:26:34.904Z,51.03
2023-03-05T15:29:03.585Z,51.16
2023-03-05T15:31:38.870Z,51.27
2023-03-05T15:34:08.636Z,51.60
2023-03-05T15:36:38.749Z,52.18
2023-03-05T15:39:54.131Z,52.37
2023-03-05T15:42:25.073Z,52.57
2023-03-05T15:44:53.241Z,52.75
2023-03-05T15:47:21.418Z,52.59
2023-03-05T15:49:49.691Z,52.96
2023-03-05T15:52:19.107Z,53.31
2023-03-05T15:54:50.661Z,53.32
2023-03-05T15:57:19.551Z,53.55
2023-03-05T15:59:47.614Z,53.56
2023-03-05T16:02:15.831Z,53.30
2023-03-05T16:04:43.862Z,53.59
2023-03-05T16:07:13.359Z,53.52
2023-03-05T16:09:43.155Z,53.61
2023-03-05T16:12:14.091Z,53.50
2023-03-05T16:14:44.869Z,53.85
2023-03-05T16:17:13.549Z,53.96
2023-03-05T16:19:43.567Z,54.17
2023-03-05T16:22:11.635Z,54.46
2023-03-05T16:24:42.782Z,54.76
2023-03-05T16:27:11.671Z,54.84
2023-03-05T16:29:40.355Z,55.06
2023-03-05T16:32:11.835Z,55.18
2023-03-05T16:34:40.392Z,55.38
2023-03-05T16:37:08.997Z,55.25
2023-03-05T16:39:37.973Z,55.76
2023-03-05T16:42:06.351Z,56.06
2023-03-05T16:44:34.524Z,56.33
2023-03-05T16:47:03.004Z,56.70
2023-03-05T16:49:31.589Z,57.06
2023-03-05T16:52:08.970Z,57.40
2023-03-05T16:54:45.346Z,57.76
2023-03-05T16:57:18.346Z,58.53
2023-03-05T16:59:46.611Z,58.82
2023-03-05T17:02:15.709Z,59.31
2023-03-05T17:04:44.902Z,59.55
2023-03-05T17:07:13.178Z,59.68
2023-03-05T17:09:42.487Z,59.66
2023-03-05T17:12:12.293Z,59.51
2023-03-05T17:14:41.699Z,60.00
2023-03-05T17:17:09.972Z,60.05
2023-03-05T17:19:38.363Z,60.43
2023-03-05T17:22:06.732Z,60.58
2023-03-05T17:24:35.007Z,60.67
2023-03-05T17:27:04.004Z,60.56
2023-03-05T17:29:32.687Z,60.79
2023-03-05T17:32:01.274Z,60.41
2023-03-05T17:34:36.246Z,60.17
2023-03-05T17:37:05.101Z,60.18
2023-03-05T17:39:34.129Z,60.02
2023-03-05T17:42:03.084Z,59.97
2023-03-05T17:44:38.786Z,59.91
2023-03-05T17:47:06.961Z,59.99
2023-03-05T17:49:35.194Z,60.24
2023-03-05T17:52:04.483Z,60.22
2023-03-05T17:54:32.658Z,59.98
2023-03-05T17:57:03.702Z,59.96
2023-03-05T17:59:31.776Z,60.06
2023-03-05T18:02:02.506Z,60.17
2023-03-05T18:04:31.020Z,60.48
2023-03-05T18:06:59.522Z,60.86
2023-03-05T18:09:27.951Z,60.92
2023-03-05T18:11:56.330Z,60.74
2023-03-05T18:14:25.028Z,60.70
2023-03-05T18:16:54.941Z,60.72
2023-03-05T18:19:23.192Z,61.00
2023-03-05T18:21:52.305Z,61.13
2023-03-05T18:24:22.221Z,61.10
2023-03-05T18:26:50.398Z,61.03
2023-03-05T18:29:18.927Z,61.46
2023-03-05T18:31:47.278Z,61.73
2023-03-05T18:34:18.300Z,61.93
2023-03-05T18:36:46.366Z,61.90
2023-03-05T18:39:18.945Z,62.04
2023-03-05T18:41:48.142Z,61.67
2023-03-05T18:44:16.421Z,62.00
2023-03-05T18:46:46.397Z,62.16
2023-03-05T18:49:14.713Z,62.49
2023-03-05T18:51:43.919Z,62.13
2023-03-05T18:54:12.086Z,62.48
2023-03-05T18:56:42.615Z,62.55
2023-03-05T18:59:10.789Z,62.68
2023-03-05T19:01:39.089Z,62.84
2023-03-05T19:04:07.916Z,62.97
2023-03-05T19:06:36.752Z,63.35
2023-03-05T19:09:47.835Z,63.26
2023-03-05T19:12:16.108Z,63.68
2023-03-05T19:14:52.582Z,63.96
2023-03-05T19:17:21.266Z,64.03
2023-03-05T19:19:51.125Z,64.32
2023-03-05T19:22:19.562Z,64.85
2023-03-05T19:24:48.149Z,65.19
2023-03-05T19:27:21.234Z,65.22
2023-03-05T19:29:50.328Z,65.31
2023-03-05T19:32:18.762Z,65.20
2023-03-05T19:34:47.882Z,65.49
2023-03-05T19:37:18.471Z,65.49
2023-03-05T19:39:47.328Z,65.79
2023-03-05T19:42:15.909Z,65.81
2023-03-05T19:44:44.910Z,65.73
2023-03-05T19:47:13.288Z,65.90
2023-03-05T19:49:41.661Z,65.72
2023-03-05T19:52:10.759Z,65.95
2023-03-05T19:54:39.058Z,66.23
2023-03-05T19:57:10.275Z,66.34
2023-03-05T19:59:40.502Z,66.56
2023-03-05T20:02:11.697Z,66.47
2023-03-05T20:04:39.855Z,66.21
2023-03-05T20:07:10.653Z,66.40
2023-03-05T20:09:39.467Z,66.42
2023-03-05T20:12:08.234Z,66.46
2023-03-05T20:14:36.303Z,66.34
2023-03-05T20:17:04.993Z,66.37
2023-03-05T20:19:33.986Z,66.04
2023-03-05T20:22:02.597Z,66.02
2023-03-05T20:24:30.849Z,65.85
2023-03-05T20:27:00.205Z,65.85
2023-03-05T20:29:32.623Z,65.82
2023-03-05T20:32:01.048Z,66.12
2023-03-05T20:34:31.440Z,66.33
2023-03-05T20:37:00.133Z,65.99
2023-03-05T20:39:29.114Z,65.69
2023-03-05T20:41:57.186Z,65.55
2023-03-05T20:44:26.902Z,65.25
2023-03-05T20:47:35.107Z,65.14
2023-03-05T20:50:12.886Z,65.35
2023-03-05T20:52:48.866Z,65.13
2023-03-05T20:55:17.453Z,65.32
2023-03-05T20:57:47.433Z,65.35
2023-03-05T21:00:16.576Z,65.27
2023-03-05T21:02:44.948Z,65.55
2023-03-05T21:05:14.762Z,65.89
2023-03-05T21:07:43.135Z,66.01
2023-03-05T21:10:14.402Z,66.33
2023-03-05T21:12:46.341Z,66.53
2023-03-05T21:15:15.134Z,67.00
2023-03-05T21:17:48.121Z,67.43
2023-03-05T21:20:20.187Z,67.62
2023-03-05T21:22:48.572Z,67.89
2023-03-05T21:25:21.294Z,68.25
2023-03-05T21:28:09.697Z,68.38
2023-03-05T21:30:46.089Z,68.48
2023-03-05T21:33:19.449Z,68.70
2023-03-05T21:35:54.975Z,68.70
2023-03-05T21:38:24.940Z,68.92
2023-03-05T21:40:57.918Z,68.78
2023-03-05T21:43:27.627Z,68.97
2023-03-05T21:45:57.546Z,69.31
2023-03-05T21:48:25.917Z,69.69
2023-03-05T21:50:55.551Z,69.89
2023-03-05T21:53:23.749Z,70.23
2023-03-05T21:56:25.567Z,70.34
2023-03-05T21:59:00.904Z,70.35
2023-03-05T22:01:30.512Z,70.59
2023-03-05T22:03:58.854Z,70.44
2023-03-05T22:06:27.367Z,70.66
2023-03-05T22:08:55.643Z,71.09
2023-03-05T22:11:30.879Z,71.04
2023-03-05T22:13:59.260Z,71.08
2023-03-05T22:16:27.800Z,71.09
2023-03-05T22:18:56.426Z,70.93
2023-03-05T22:21:28.165Z,71.28
2023-03-05T22:24:00.768Z,71.55
2023-03-05T22:26:36.834Z,71.65
2023-03-05T22:29:05.516Z,71.63
2023-03-05T22:31:33.988Z,71.59
2023-03-05T22:34:02.696Z,71.53
2023-03-05T22:36:32.391Z,71.50
2023-03-05T22:39:00.558Z,71.53
2023-03-05T22:41:31.296Z,71.45
2023-03-05T22:44:00.565Z,71.38
2023-03-05T22:46:28.925Z,71.40
2023-03-05T22:48:58.171Z,71.12
2023-03-05T22:51:26.758Z,70.94
2023-03-05T22:53:57.802Z,70.87
2023-03-05T22:56:26.175Z,70.92
2023-03-05T22:58:55.170Z,70.93
2023-03-05T23:01:24.929Z,70.92
2023-03-05T23:04:49.560Z,70.84
2023-03-05T23:07:23.625Z,70.51
2023-03-05T23:10:01.607Z,70.34
2023-03-05T23:12:31.914Z,69.82
2023-03-05T23:15:12.292Z,69.60
2023-03-05T23:17:43.049Z,69.55
2023-03-05T23:20:12.330Z,69.41
2023-03-05T23:22:40.814Z,69.53
2023-03-05T23:25:09.501Z,69.25
2023-03-05T23:27:38.494Z,69.52
2023-03-05T23:30:16.605Z,69.31
2023-03-05T23:32:58.960Z,69.36
2023-03-05T23:35:31.962Z,69.38
2023-03-05T23:38:02.436Z,69.19
2023-03-05T23:40:35.732Z,69.05
2023-03-05T23:43:04.089Z,69.14
2023-03-05T23:45:32.712Z,69.11
2023-03-05T23:48:01.563Z,68.94
2023-03-05T23:50:32.505Z,68.89
2023-03-05T23:53:02.029Z,69.02
2023-03-05T23:55:39.992Z,69.25
2023-03-05T23:58:12.902Z,69.43
